sensor_id;sensor_type;location;lat;lon;timestamp;pressure;altitude;pressure_sealevel;temperature;humidity
15678;BME280;7939;50.814;6.368;2022-10-16T00:00:20;99484.38;;;17.83;66.23
15678;BME280;7939;50.814;6.368;2022-10-16T00:02:47;99490.41;;;17.84;66.36
15678;BME280;7939;50.814;6.368;2022-10-16T00:05:13;99487.03;;;17.82;66.46
15678;BME280;7939;50.814;6.368;2022-10-16T00:07:40;99493.88;;;17.83;66.09
15678;BME280;7939;50.814;6.368;2022-10-16T00:10:07;99487.88;;;17.82;66.26
15678;BME280;7939;50.814;6.368;2022-10-16T00:12:35;99484.44;;;17.82;66.38
15678;BME280;7939;50.814;6.368;2022-10-16T00:15:02;99478.44;;;17.81;66.62
15678;BME280;7939;50.814;6.368;2022-10-16T00:17:29;99481.94;;;17.80;66.70
15678;BME280;7939;50.814;6.368;2022-10-16T00:19:56;99475.00;;;17.81;66.56
15678;BME280;7939;50.814;6.368;2022-10-16T00:22:23;99466.44;;;17.78;66.48
15678;BME280;7939;50.814;6.368;2022-10-16T00:24:50;99463.03;;;17.78;66.10
15678;BME280;7939;50.814;6.368;2022-10-16T00:27:16;99465.59;;;17.78;66.66
15678;BME280;7939;50.814;6.368;2022-10-16T00:29:44;99463.91;;;17.77;66.56
15678;BME280;7939;50.814;6.368;2022-10-16T00:32:11;99470.84;;;17.76;66.61
15678;BME280;7939;50.814;6.368;2022-10-16T00:34:38;99465.66;;;17.76;66.37
15678;BME280;7939;50.814;6.368;2022-10-16T00:37:04;99463.09;;;17.76;66.13
15678;BME280;7939;50.814;6.368;2022-10-16T00:39:31;99461.41;;;17.75;66.37
15678;BME280;7939;50.814;6.368;2022-10-16T00:41:57;99456.28;;;17.74;66.36
15678;BME280;7939;50.814;6.368;2022-10-16T00:44:56;99448.53;;;17.74;66.13
15678;BME280;7939;50.814;6.368;2022-10-16T00:47:26;99452.88;;;17.72;66.59
15678;BME280;7939;50.814;6.368;2022-10-16T00:49:58;99469.25;;;17.72;66.53
15678;BME280;7939;50.814;6.368;2022-10-16T00:52:26;99476.16;;;17.72;66.16
15678;BME280;7939;50.814;6.368;2022-10-16T00:54:54;99467.56;;;17.71;66.51
15678;BME280;7939;50.814;6.368;2022-10-16T00:57:21;99464.16;;;17.69;66.09
15678;BME280;7939;50.814;6.368;2022-10-16T00:59:48;99471.06;;;17.69;66.69
15678;BME280;7939;50.814;6.368;2022-10-16T01:02:16;99478.81;;;17.69;66.04
15678;BME280;7939;50.814;6.368;2022-10-16T01:04:46;99476.25;;;17.69;66.22
15678;BME280;7939;50.814;6.368;2022-10-16T01:07:19;99474.56;;;17.68;65.98
15678;BME280;7939;50.814;6.368;2022-10-16T01:10:00;99476.31;;;17.67;66.33
15678;BME280;7939;50.814;6.368;2022-10-16T01:12:35;99490.97;;;17.67;66.07
15678;BME280;7939;50.814;6.368;2022-10-16T01:15:10;99493.53;;;17.67;66.55
15678;BME280;7939;50.814;6.368;2022-10-16T01:17:44;99472.06;;;17.65;66.66
15678;BME280;7939;50.814;6.368;2022-10-16T01:20:20;99466.88;;;17.65;66.54
15678;BME280;7939;50.814;6.368;2022-10-16T01:23:02;99482.41;;;17.65;66.59
15678;BME280;7939;50.814;6.368;2022-10-16T01:25:39;99481.63;;;17.63;66.35
15678;BME280;7939;50.814;6.368;2022-10-16T01:28:11;99492.78;;;17.63;66.51
15678;BME280;7939;50.814;6.368;2022-10-16T01:30:42;99497.13;;;17.63;66.51
15678;BME280;7939;50.814;6.368;2022-10-16T01:33:13;99498.91;;;17.61;66.13
15678;BME280;7939;50.814;6.368;2022-10-16T01:35:45;99485.16;;;17.60;66.54
15678;BME280;7939;50.814;6.368;2022-10-16T01:38:17;99486.88;;;17.60;65.77
15678;BME280;7939;50.814;6.368;2022-10-16T01:40:47;99492.94;;;17.59;66.21
15678;BME280;7939;50.814;6.368;2022-10-16T01:43:19;99498.09;;;17.59;66.44
15678;BME280;7939;50.814;6.368;2022-10-16T01:45:47;99493.78;;;17.59;66.38
15678;BME280;7939;50.814;6.368;2022-10-16T01:48:17;99485.19;;;17.59;66.46
15678;BME280;7939;50.814;6.368;2022-10-16T01:50:50;99493.84;;;17.58;66.22
15678;BME280;7939;50.814;6.368;2022-10-16T01:53:18;99493.00;;;17.57;66.40
15678;BME280;7939;50.814;6.368;2022-10-16T01:55:48;99502.44;;;17.58;65.71
15678;BME280;7939;50.814;6.368;2022-10-16T01:58:17;99494.72;;;17.57;66.14
15678;BME280;7939;50.814;6.368;2022-10-16T02:00:45;99498.22;;;17.56;65.61
15678;BME280;7939;50.814;6.368;2022-10-16T02:03:16;99495.63;;;17.56;66.08
15678;BME280;7939;50.814;6.368;2022-10-16T02:05:46;99499.06;;;17.56;66.00
15678;BME280;7939;50.814;6.368;2022-10-16T02:08:13;99487.06;;;17.53;65.54
15678;BME280;7939;50.814;6.368;2022-10-16T02:10:40;99490.53;;;17.54;66.09
15678;BME280;7939;50.814;6.368;2022-10-16T02:13:10;99495.69;;;17.54;65.85
15678;BME280;7939;50.814;6.368;2022-10-16T02:15:39;99500.00;;;17.53;66.00
15678;BME280;7939;50.814;6.368;2022-10-16T02:18:07;99510.31;;;17.53;65.40
15678;BME280;7939;50.814;6.368;2022-10-16T02:20:42;99501.78;;;17.51;65.34
15678;BME280;7939;50.814;6.368;2022-10-16T02:23:13;99516.44;;;17.51;65.92
15678;BME280;7939;50.814;6.368;2022-10-16T02:25:47;99518.19;;;17.50;65.74
15678;BME280;7939;50.814;6.368;2022-10-16T02:28:16;99507.00;;;17.50;65.66
15678;BME280;7939;50.814;6.368;2022-10-16T02:30:49;99501.84;;;17.50;66.07
15678;BME280;7939;50.814;6.368;2022-10-16T02:33:19;99512.19;;;17.50;66.00
15678;BME280;7939;50.814;6.368;2022-10-16T02:35:49;99512.25;;;17.48;65.45
15678;BME280;7939;50.814;6.368;2022-10-16T02:38:17;99515.66;;;17.49;65.91
15678;BME280;7939;50.814;6.368;2022-10-16T02:40:44;99511.41;;;17.48;65.42
15678;BME280;7939;50.814;6.368;2022-10-16T02:43:12;99522.56;;;17.48;65.79
15678;BME280;7939;50.814;6.368;2022-10-16T02:45:39;99513.97;;;17.48;65.59
15678;BME280;7939;50.814;6.368;2022-10-16T02:48:07;99510.56;;;17.47;65.95
15678;BME280;7939;50.814;6.368;2022-10-16T02:50:34;99517.44;;;17.47;65.48
15678;BME280;7939;50.814;6.368;2022-10-16T02:53:00;99508.84;;;17.46;65.83
15678;BME280;7939;50.814;6.368;2022-10-16T02:55:27;99501.09;;;17.46;65.59
15678;BME280;7939;50.814;6.368;2022-10-16T02:57:54;99488.22;;;17.45;65.45
15678;BME280;7939;50.814;6.368;2022-10-16T03:00:21;99481.31;;;17.45;65.30
15678;BME280;7939;50.814;6.368;2022-10-16T03:02:47;99493.41;;;17.45;65.83
15678;BME280;7939;50.814;6.368;2022-10-16T03:05:16;99492.56;;;17.44;66.06
15678;BME280;7939;50.814;6.368;2022-10-16T03:07:42;99496.03;;;17.43;65.57
15678;BME280;7939;50.814;6.368;2022-10-16T03:10:09;99484.03;;;17.42;65.88
15678;BME280;7939;50.814;6.368;2022-10-16T03:12:35;99490.03;;;17.43;65.76
15678;BME280;7939;50.814;6.368;2022-10-16T03:15:02;99499.53;;;17.42;65.86
15678;BME280;7939;50.814;6.368;2022-10-16T03:17:29;99496.09;;;17.42;66.11
15678;BME280;7939;50.814;6.368;2022-10-16T03:19:56;99486.59;;;17.42;66.05
15678;BME280;7939;50.814;6.368;2022-10-16T03:22:24;99492.66;;;17.41;66.02
15678;BME280;7939;50.814;6.368;2022-10-16T03:24:50;99505.59;;;17.41;66.23
15678;BME280;7939;50.814;6.368;2022-10-16T03:27:17;99491.78;;;17.41;65.83
15678;BME280;7939;50.814;6.368;2022-10-16T03:29:43;99490.13;;;17.40;65.70
15678;BME280;7939;50.814;6.368;2022-10-16T03:32:10;99503.94;;;17.39;65.85
15678;BME280;7939;50.814;6.368;2022-10-16T03:34:36;99503.94;;;17.39;65.68
15678;BME280;7939;50.814;6.368;2022-10-16T03:37:03;99512.53;;;17.39;66.30
15678;BME280;7939;50.814;6.368;2022-10-16T03:39:32;99513.41;;;17.38;66.12
15678;BME280;7939;50.814;6.368;2022-10-16T03:41:58;99543.53;;;17.39;66.16
15678;BME280;7939;50.814;6.368;2022-10-16T03:44:25;99542.69;;;17.39;66.30
15678;BME280;7939;50.814;6.368;2022-10-16T03:46:51;99546.09;;;17.39;66.25
15678;BME280;7939;50.814;6.368;2022-10-16T03:49:18;99533.25;;;17.38;66.02
15678;BME280;7939;50.814;6.368;2022-10-16T03:51:44;99522.06;;;17.37;65.81
15678;BME280;7939;50.814;6.368;2022-10-16T03:54:11;99529.81;;;17.37;66.21
15678;BME280;7939;50.814;6.368;2022-10-16T03:56:39;99531.56;;;17.37;65.77
15678;BME280;7939;50.814;6.368;2022-10-16T03:59:05;99523.81;;;17.37;65.63
15678;BME280;7939;50.814;6.368;2022-10-16T04:01:32;99531.56;;;17.37;66.29
15678;BME280;7939;50.814;6.368;2022-10-16T04:03:58;99537.56;;;17.37;65.76
15678;BME280;7939;50.814;6.368;2022-10-16T04:06:25;99530.72;;;17.36;65.84
15678;BME280;7939;50.814;6.368;2022-10-16T04:08:52;99531.63;;;17.35;66.21
15678;BME280;7939;50.814;6.368;2022-10-16T04:11:19;99531.63;;;17.35;66.08
15678;BME280;7939;50.814;6.368;2022-10-16T04:13:47;99535.91;;;17.35;65.50
15678;BME280;7939;50.814;6.368;2022-10-16T04:16:14;99536.81;;;17.34;65.70
15678;BME280;7939;50.814;6.368;2022-10-16T04:18:40;99541.97;;;17.34;66.02
15678;BME280;7939;50.814;6.368;2022-10-16T04:21:07;99541.13;;;17.33;66.21
15678;BME280;7939;50.814;6.368;2022-10-16T04:23:35;99540.28;;;17.33;65.93
15678;BME280;7939;50.814;6.368;2022-10-16T04:26:01;99537.69;;;17.33;65.77
15678;BME280;7939;50.814;6.368;2022-10-16T04:28:28;99539.44;;;17.32;65.88
15678;BME280;7939;50.814;6.368;2022-10-16T04:30:56;99537.75;;;17.31;65.66
15678;BME280;7939;50.814;6.368;2022-10-16T04:33:23;99545.50;;;17.31;66.27
15678;BME280;7939;50.814;6.368;2022-10-16T04:35:56;99556.72;;;17.30;65.98
15678;BME280;7939;50.814;6.368;2022-10-16T04:38:22;99567.97;;;17.29;65.78
15678;BME280;7939;50.814;6.368;2022-10-16T04:40:49;99566.22;;;17.30;65.98
15678;BME280;7939;50.814;6.368;2022-10-16T04:43:16;99578.28;;;17.29;65.53
15678;BME280;7939;50.814;6.368;2022-10-16T04:45:43;99568.81;;;17.28;65.80
15678;BME280;7939;50.814;6.368;2022-10-16T04:48:11;99568.81;;;17.28;66.13
15678;BME280;7939;50.814;6.368;2022-10-16T04:50:38;99574.06;;;17.26;65.90
15678;BME280;7939;50.814;6.368;2022-10-16T04:53:04;99588.69;;;17.26;66.13
15678;BME280;7939;50.814;6.368;2022-10-16T04:55:31;99589.59;;;17.25;66.01
15678;BME280;7939;50.814;6.368;2022-10-16T04:57:58;99586.19;;;17.24;66.04
15678;BME280;7939;50.814;6.368;2022-10-16T05:00:24;99593.06;;;17.24;66.14
15678;BME280;7939;50.814;6.368;2022-10-16T05:02:51;99592.22;;;17.23;65.88
15678;BME280;7939;50.814;6.368;2022-10-16T05:05:19;99605.16;;;17.23;65.93
15678;BME280;7939;50.814;6.368;2022-10-16T05:07:46;99607.75;;;17.22;65.79
15678;BME280;7939;50.814;6.368;2022-10-16T05:10:13;99599.16;;;17.21;65.78
15678;BME280;7939;50.814;6.368;2022-10-16T05:12:39;99603.47;;;17.21;65.56
15678;BME280;7939;50.814;6.368;2022-10-16T05:15:07;99607.81;;;17.20;65.87
15678;BME280;7939;50.814;6.368;2022-10-16T05:17:33;99610.38;;;17.20;65.88
15678;BME280;7939;50.814;6.368;2022-10-16T05:20:00;99607.88;;;17.19;65.39
15678;BME280;7939;50.814;6.368;2022-10-16T05:22:28;99616.44;;;17.19;65.41
15678;BME280;7939;50.814;6.368;2022-10-16T05:24:55;99619.09;;;17.18;65.27
15678;BME280;7939;50.814;6.368;2022-10-16T05:27:21;99618.25;;;17.17;65.46
15678;BME280;7939;50.814;6.368;2022-10-16T05:29:48;99613.97;;;17.16;65.32
15678;BME280;7939;50.814;6.368;2022-10-16T05:32:16;99610.53;;;17.16;65.39
15678;BME280;7939;50.814;6.368;2022-10-16T05:34:43;99611.41;;;17.15;65.96
15678;BME280;7939;50.814;6.368;2022-10-16T05:37:10;99615.72;;;17.14;65.52
15678;BME280;7939;50.814;6.368;2022-10-16T05:39:39;99618.31;;;17.14;65.38
15678;BME280;7939;50.814;6.368;2022-10-16T05:42:05;99631.22;;;17.14;65.86
15678;BME280;7939;50.814;6.368;2022-10-16T05:44:32;99636.41;;;17.14;65.95
15678;BME280;7939;50.814;6.368;2022-10-16T05:46:59;99641.59;;;17.13;65.44
15678;BME280;7939;50.814;6.368;2022-10-16T05:49:25;99645.09;;;17.12;65.56
15678;BME280;7939;50.814;6.368;2022-10-16T05:51:52;99645.13;;;17.10;65.60
15678;BME280;7939;50.814;6.368;2022-10-16T05:54:18;99656.31;;;17.11;65.51
15678;BME280;7939;50.814;6.368;2022-10-16T05:56:47;99663.22;;;17.10;65.70
15678;BME280;7939;50.814;6.368;2022-10-16T05:59:13;99668.41;;;17.09;65.37
15678;BME280;7939;50.814;6.368;2022-10-16T06:01:40;99663.22;;;17.09;65.41
15678;BME280;7939;50.814;6.368;2022-10-16T06:04:07;99663.28;;;17.07;65.52
15678;BME280;7939;50.814;6.368;2022-10-16T06:06:34;99662.44;;;17.07;65.41
15678;BME280;7939;50.814;6.368;2022-10-16T06:09:02;99664.13;;;17.08;65.39
15678;BME280;7939;50.814;6.368;2022-10-16T06:11:31;99663.34;;;17.06;66.00
15678;BME280;7939;50.814;6.368;2022-10-16T06:14:01;99673.66;;;17.06;65.51
15678;BME280;7939;50.814;6.368;2022-10-16T06:16:32;99684.84;;;17.06;65.55
15678;BME280;7939;50.814;6.368;2022-10-16T06:18:58;99686.56;;;17.06;65.22
15678;BME280;7939;50.814;6.368;2022-10-16T06:21:26;99694.31;;;17.06;65.63
15678;BME280;7939;50.814;6.368;2022-10-16T06:23:54;99692.63;;;17.05;65.65
15678;BME280;7939;50.814;6.368;2022-10-16T06:26:24;99693.53;;;17.04;65.45
15678;BME280;7939;50.814;6.368;2022-10-16T06:28:51;99697.78;;;17.05;65.88
15678;BME280;7939;50.814;6.368;2022-10-16T06:31:19;99701.28;;;17.04;65.92
15678;BME280;7939;50.814;6.368;2022-10-16T06:33:50;99707.28;;;17.04;65.38
15678;BME280;7939;50.814;6.368;2022-10-16T06:36:18;99698.69;;;17.04;65.51
15678;BME280;7939;50.814;6.368;2022-10-16T06:38:45;99711.59;;;17.04;65.97
15678;BME280;7939;50.814;6.368;2022-10-16T06:41:14;99715.94;;;17.02;65.29
15678;BME280;7939;50.814;6.368;2022-10-16T06:43:41;99714.19;;;17.02;65.32
15678;BME280;7939;50.814;6.368;2022-10-16T06:46:09;99711.63;;;17.02;65.58
15678;BME280;7939;50.814;6.368;2022-10-16T06:48:38;99720.19;;;17.03;65.46
15678;BME280;7939;50.814;6.368;2022-10-16T06:51:06;99720.19;;;17.03;65.62
15678;BME280;7939;50.814;6.368;2022-10-16T06:53:34;99718.47;;;17.03;65.90
15678;BME280;7939;50.814;6.368;2022-10-16T06:56:07;99727.09;;;17.04;66.14
15678;BME280;7939;50.814;6.368;2022-10-16T06:58:34;99729.66;;;17.04;66.05
15678;BME280;7939;50.814;6.368;2022-10-16T07:01:01;99732.25;;;17.04;65.66
15678;BME280;7939;50.814;6.368;2022-10-16T07:03:27;99743.44;;;17.03;65.93
15678;BME280;7939;50.814;6.368;2022-10-16T07:05:55;99743.41;;;17.04;65.73
15678;BME280;7939;50.814;6.368;2022-10-16T07:08:22;99750.31;;;17.04;65.92
15678;BME280;7939;50.814;6.368;2022-10-16T07:10:58;99761.50;;;17.04;66.14
15678;BME280;7939;50.814;6.368;2022-10-16T07:13:25;99765.81;;;17.04;65.72
15678;BME280;7939;50.814;6.368;2022-10-16T07:15:51;99768.41;;;17.04;65.82
15678;BME280;7939;50.814;6.368;2022-10-16T07:18:18;99768.41;;;17.04;65.82
15678;BME280;7939;50.814;6.368;2022-10-16T07:20:44;99776.16;;;17.04;65.94
15678;BME280;7939;50.814;6.368;2022-10-16T07:23:12;99772.66;;;17.05;65.86
15678;BME280;7939;50.814;6.368;2022-10-16T07:25:39;99776.97;;;17.04;66.24
15678;BME280;7939;50.814;6.368;2022-10-16T07:28:05;99782.16;;;17.04;65.83
15678;BME280;7939;50.814;6.368;2022-10-16T07:30:34;99789.91;;;17.03;65.97
15678;BME280;7939;50.814;6.368;2022-10-16T07:33:01;99801.06;;;17.05;65.94
15678;BME280;7939;50.814;6.368;2022-10-16T07:35:28;99807.13;;;17.04;65.97
15678;BME280;7939;50.814;6.368;2022-10-16T07:37:54;99810.56;;;17.04;65.97
15678;BME280;7939;50.814;6.368;2022-10-16T07:40:22;99818.31;;;17.03;66.35
15678;BME280;7939;50.814;6.368;2022-10-16T07:42:49;99814.00;;;17.03;66.30
15678;BME280;7939;50.814;6.368;2022-10-16T07:45:15;99812.28;;;17.04;65.99
15678;BME280;7939;50.814;6.368;2022-10-16T07:47:42;99816.56;;;17.03;66.19
15678;BME280;7939;50.814;6.368;2022-10-16T07:50:08;99817.44;;;17.04;66.43
15678;BME280;7939;50.814;6.368;2022-10-16T07:52:35;99817.44;;;17.04;66.46
15678;BME280;7939;50.814;6.368;2022-10-16T07:55:02;99818.31;;;17.03;66.07
15678;BME280;7939;50.814;6.368;2022-10-16T07:57:30;99824.31;;;17.05;66.39
15678;BME280;7939;50.814;6.368;2022-10-16T07:59:57;99818.28;;;17.04;66.54
15678;BME280;7939;50.814;6.368;2022-10-16T08:02:24;99827.78;;;17.04;66.17
15678;BME280;7939;50.814;6.368;2022-10-16T08:04:50;99829.47;;;17.05;66.13
15678;BME280;7939;50.814;6.368;2022-10-16T08:07:17;99836.31;;;17.06;66.67
15678;BME280;7939;50.814;6.368;2022-10-16T08:09:43;99838.91;;;17.06;66.40
15678;BME280;7939;50.814;6.368;2022-10-16T08:12:10;99828.56;;;17.06;66.32
15678;BME280;7939;50.814;6.368;2022-10-16T08:14:38;99837.16;;;17.06;66.65
15678;BME280;7939;50.814;6.368;2022-10-16T08:17:04;99838.00;;;17.07;66.46
15678;BME280;7939;50.814;6.368;2022-10-16T08:19:31;99853.47;;;17.08;66.27
15678;BME280;7939;50.814;6.368;2022-10-16T08:21:59;99854.31;;;17.09;66.03
15678;BME280;7939;50.814;6.368;2022-10-16T08:24:26;99856.88;;;17.09;66.34
15678;BME280;7939;50.814;6.368;2022-10-16T08:26:53;99865.47;;;17.09;66.55
15678;BME280;7939;50.814;6.368;2022-10-16T08:29:19;99864.63;;;17.10;66.86
15678;BME280;7939;50.814;6.368;2022-10-16T08:31:47;99863.69;;;17.13;66.65
15678;BME280;7939;50.814;6.368;2022-10-16T08:34:14;99862.84;;;17.12;66.22
15678;BME280;7939;50.814;6.368;2022-10-16T08:36:40;99868.78;;;17.14;66.17
15678;BME280;7939;50.814;6.368;2022-10-16T08:39:07;99873.06;;;17.15;66.69
15678;BME280;7939;50.814;6.368;2022-10-16T08:41:54;99873.91;;;17.16;66.36
15678;BME280;7939;50.814;6.368;2022-10-16T08:47:48;99880.81;;;17.17;66.29
15678;BME280;7939;50.814;6.368;2022-10-16T08:50:21;99883.28;;;17.20;66.43
15678;BME280;7939;50.814;6.368;2022-10-16T08:52:49;99892.72;;;17.21;66.25
15678;BME280;7939;50.814;6.368;2022-10-16T08:55:30;99889.25;;;17.22;66.20
15678;BME280;7939;50.814;6.368;2022-10-16T08:57:58;99890.97;;;17.23;66.15
15678;BME280;7939;50.814;6.368;2022-10-16T09:00:26;99895.19;;;17.25;66.04
15678;BME280;7939;50.814;6.368;2022-10-16T09:03:02;99904.59;;;17.28;66.26
15678;BME280;7939;50.814;6.368;2022-10-16T09:06:01;99895.09;;;17.30;65.85
15678;BME280;7939;50.814;6.368;2022-10-16T09:08:40;99897.63;;;17.32;66.11
15678;BME280;7939;50.814;6.368;2022-10-16T09:11:18;99901.00;;;17.34;66.22
15678;BME280;7939;50.814;6.368;2022-10-16T09:13:51;99891.50;;;17.36;65.98
15678;BME280;7939;50.814;6.368;2022-10-16T09:16:23;99894.03;;;17.37;66.04
15678;BME280;7939;50.814;6.368;2022-10-16T09:18:58;99899.13;;;17.40;66.04
15678;BME280;7939;50.814;6.368;2022-10-16T09:21:28;99907.69;;;17.42;65.95
15678;BME280;7939;50.814;6.368;2022-10-16T09:23:58;99905.88;;;17.46;65.71
15678;BME280;7939;50.814;6.368;2022-10-16T09:26:25;99904.97;;;17.47;65.85
15678;BME280;7939;50.814;6.368;2022-10-16T09:28:52;99910.91;;;17.50;66.09
15678;BME280;7939;50.814;6.368;2022-10-16T09:31:21;99906.53;;;17.52;65.47
15678;BME280;7939;50.814;6.368;2022-10-16T09:33:52;99914.22;;;17.56;65.47
15678;BME280;7939;50.814;6.368;2022-10-16T09:36:21;99916.72;;;17.59;64.88
15678;BME280;7939;50.814;6.368;2022-10-16T09:38:50;99916.66;;;17.62;65.49
15678;BME280;7939;50.814;6.368;2022-10-16T09:41:27;99913.97;;;17.65;65.35
15678;BME280;7939;50.814;6.368;2022-10-16T09:43:56;99915.66;;;17.67;65.32
15678;BME280;7939;50.814;6.368;2022-10-16T09:46:28;99906.97;;;17.70;64.96
15678;BME280;7939;50.814;6.368;2022-10-16T09:48:56;99903.47;;;17.72;64.55
15678;BME280;7939;50.814;6.368;2022-10-16T09:51:26;99909.34;;;17.77;65.10
15678;BME280;7939;50.814;6.368;2022-10-16T09:53:58;99898.13;;;17.78;65.09
15678;BME280;7939;50.814;6.368;2022-10-16T09:56:28;99902.38;;;17.81;64.44
15678;BME280;7939;50.814;6.368;2022-10-16T09:58:57;99910.03;;;17.84;64.42
15678;BME280;7939;50.814;6.368;2022-10-16T10:01:30;99904.78;;;17.87;64.23
15678;BME280;7939;50.814;6.368;2022-10-16T10:03:58;99900.34;;;17.92;64.07
15678;BME280;7939;50.814;6.368;2022-10-16T10:06:31;99896.03;;;17.93;64.41
15678;BME280;7939;50.814;6.368;2022-10-16T10:09:05;99889.84;;;17.97;64.19
15678;BME280;7939;50.814;6.368;2022-10-16T10:11:44;99896.69;;;17.99;64.20
15678;BME280;7939;50.814;6.368;2022-10-16T10:14:20;99895.75;;;18.02;64.41
15678;BME280;7939;50.814;6.368;2022-10-16T10:16:48;99902.59;;;18.04;63.85
15678;BME280;7939;50.814;6.368;2022-10-16T10:19:17;99904.22;;;18.07;63.57
15678;BME280;7939;50.814;6.368;2022-10-16T10:21:45;99914.47;;;18.10;63.26
15678;BME280;7939;50.814;6.368;2022-10-16T10:24:14;99914.41;;;18.13;63.57
15678;BME280;7939;50.814;6.368;2022-10-16T10:26:47;99910.00;;;18.15;63.93
15678;BME280;7939;50.814;6.368;2022-10-16T10:29:21;99905.66;;;18.17;64.12
15678;BME280;7939;50.814;6.368;2022-10-16T10:32:03;99911.63;;;18.19;63.29
15678;BME280;7939;50.814;6.368;2022-10-16T10:34:51;99909.81;;;18.23;63.77
15678;BME280;7939;50.814;6.368;2022-10-16T10:37:39;99909.72;;;18.26;63.67
15678;BME280;7939;50.814;6.368;2022-10-16T10:40:20;99901.91;;;18.27;62.41
15678;BME280;7939;50.814;6.368;2022-10-16T10:42:54;99901.78;;;18.32;61.91
15678;BME280;7939;50.814;6.368;2022-10-16T10:45:26;99909.47;;;18.33;62.52
15678;BME280;7939;50.814;6.368;2022-10-16T10:48:02;99908.56;;;18.36;62.49
15678;BME280;7939;50.814;6.368;2022-10-16T10:50:38;99912.78;;;18.39;62.41
15678;BME280;7939;50.814;6.368;2022-10-16T10:53:16;99913.63;;;18.39;62.01
15678;BME280;7939;50.814;6.368;2022-10-16T10:55:50;99918.72;;;18.42;61.99
15678;BME280;7939;50.814;6.368;2022-10-16T10:58:35;99924.75;;;18.43;61.23
15678;BME280;7939;50.814;6.368;2022-10-16T11:01:09;99925.59;;;18.43;61.40
15678;BME280;7939;50.814;6.368;2022-10-16T11:03:51;99926.34;;;18.47;62.13
15678;BME280;7939;50.814;6.368;2022-10-16T11:06:21;99927.22;;;18.46;61.69
15678;BME280;7939;50.814;6.368;2022-10-16T11:08:55;99925.50;;;18.46;60.97
15678;BME280;7939;50.814;6.368;2022-10-16T11:11:32;99917.66;;;18.49;61.94
15678;BME280;7939;50.814;6.368;2022-10-16T11:14:04;99922.81;;;18.49;61.56
15678;BME280;7939;50.814;6.368;2022-10-16T11:16:36;99931.31;;;18.53;61.41
15678;BME280;7939;50.814;6.368;2022-10-16T11:19:11;99934.72;;;18.55;61.75
15678;BME280;7939;50.814;6.368;2022-10-16T11:21:46;99943.28;;;18.57;62.00
15678;BME280;7939;50.814;6.368;2022-10-16T11:24:22;99934.63;;;18.58;60.82
15678;BME280;7939;50.814;6.368;2022-10-16T11:26:53;99941.41;;;18.62;61.50
15678;BME280;7939;50.814;6.368;2022-10-16T11:29:27;99945.63;;;18.65;60.52
15678;BME280;7939;50.814;6.368;2022-10-16T11:31:59;99933.53;;;18.67;61.40
15678;BME280;7939;50.814;6.368;2022-10-16T11:34:31;99944.69;;;18.69;61.27
15678;BME280;7939;50.814;6.368;2022-10-16T11:37:04;99952.41;;;18.70;61.30
15678;BME280;7939;50.814;6.368;2022-10-16T11:39:33;99939.38;;;18.73;61.08
15678;BME280;7939;50.814;6.368;2022-10-16T11:42:04;99936.69;;;18.76;60.89
15678;BME280;7939;50.814;6.368;2022-10-16T11:44:41;99938.38;;;18.77;61.31
15678;BME280;7939;50.814;6.368;2022-10-16T11:47:25;99942.66;;;18.78;60.66
15678;BME280;7939;50.814;6.368;2022-10-16T11:49:57;99944.31;;;18.81;60.21
15678;BME280;7939;50.814;6.368;2022-10-16T11:52:29;99942.56;;;18.81;60.46
15678;BME280;7939;50.814;6.368;2022-10-16T11:55:02;99946.84;;;18.82;60.82
15678;BME280;7939;50.814;6.368;2022-10-16T11:57:34;99937.28;;;18.84;60.62
15678;BME280;7939;50.814;6.368;2022-10-16T12:00:08;99932.94;;;18.85;60.57
15678;BME280;7939;50.814;6.368;2022-10-16T12:02:44;99940.69;;;18.86;60.60
15678;BME280;7939;50.814;6.368;2022-10-16T12:05:22;99932.88;;;18.88;60.89
15678;BME280;7939;50.814;6.368;2022-10-16T12:07:56;99932.03;;;18.88;61.46
15678;BME280;7939;50.814;6.368;2022-10-16T12:10:29;99944.91;;;18.89;61.45
15678;BME280;7939;50.814;6.368;2022-10-16T12:12:57;99941.47;;;18.89;61.24
15678;BME280;7939;50.814;6.368;2022-10-16T12:15:26;99943.13;;;18.91;61.80
15678;BME280;7939;50.814;6.368;2022-10-16T12:17:53;99940.53;;;18.91;61.76
15678;BME280;7939;50.814;6.368;2022-10-16T12:20:27;99937.00;;;18.94;61.72
15678;BME280;7939;50.814;6.368;2022-10-16T12:22:57;99936.97;;;18.95;61.60
15678;BME280;7939;50.814;6.368;2022-10-16T12:25:28;99929.97;;;18.97;61.23
15678;BME280;7939;50.814;6.368;2022-10-16T12:27:58;99935.13;;;18.99;60.67
15678;BME280;7939;50.814;6.368;2022-10-16T12:30:27;99933.41;;;18.98;61.43
15678;BME280;7939;50.814;6.368;2022-10-16T12:32:56;99933.38;;;18.99;61.00
15678;BME280;7939;50.814;6.368;2022-10-16T12:35:26;99935.06;;;19.00;61.36
15678;BME280;7939;50.814;6.368;2022-10-16T12:37:54;99928.16;;;19.01;61.49
15678;BME280;7939;50.814;6.368;2022-10-16T12:40:27;99934.16;;;19.01;61.27
15678;BME280;7939;50.814;6.368;2022-10-16T12:42:56;99935.00;;;19.02;60.96
15678;BME280;7939;50.814;6.368;2022-10-16T12:45:28;99939.28;;;19.03;61.57
15678;BME280;7939;50.814;6.368;2022-10-16T12:47:57;99935.00;;;19.02;61.37
15678;BME280;7939;50.814;6.368;2022-10-16T12:50:28;99933.28;;;19.02;61.16
15678;BME280;7939;50.814;6.368;2022-10-16T12:52:55;99928.03;;;19.04;61.66
15678;BME280;7939;50.814;6.368;2022-10-16T12:55:23;99920.22;;;19.05;61.02
15678;BME280;7939;50.814;6.368;2022-10-16T12:58:09;99909.88;;;19.05;60.96
15678;BME280;7939;50.814;6.368;2022-10-16T13:00:44;99916.75;;;19.06;61.60
15678;BME280;7939;50.814;6.368;2022-10-16T13:03:34;99920.19;;;19.07;62.03
15678;BME280;7939;50.814;6.368;2022-10-16T13:06:15;99921.03;;;19.07;61.87
15678;BME280;7939;50.814;6.368;2022-10-16T13:09:02;99934.75;;;19.09;61.69
15678;BME280;7939;50.814;6.368;2022-10-16T13:11:45;99928.69;;;19.10;61.14
15678;BME280;7939;50.814;6.368;2022-10-16T13:14:31;99926.06;;;19.12;61.33
15678;BME280;7939;50.814;6.368;2022-10-16T13:17:09;99924.25;;;19.14;61.96
15678;BME280;7939;50.814;6.368;2022-10-16T13:19:44;99933.66;;;19.17;61.91
15678;BME280;7939;50.814;6.368;2022-10-16T13:22:18;99925.88;;;19.17;61.82
15678;BME280;7939;50.814;6.368;2022-10-16T13:24:58;99927.56;;;19.19;61.71
15678;BME280;7939;50.814;6.368;2022-10-16T13:27:35;99928.34;;;19.21;61.37